createdAt,value
2018-12-18T00:00:03.516Z,459.60
2018-12-18T00:01:03.530Z,460.42
2018-12-18T00:02:03.545Z,463.61
2018-12-18T00:03:03.523Z,460.48
2018-12-18T00:04:03.501Z,459.17
2018-12-18T00:05:03.459Z,462.00
2018-12-18T00:06:03.522Z,461.43
2018-12-18T00:07:03.462Z,462.57
2018-12-18T00:08:03.525Z,463.27
2018-12-18T00:09:03.438Z,464.12
2018-12-18T00:10:03.435Z,458.23
2018-12-18T00:11:03.401Z,461.22
2018-12-18T00:12:03.414Z,467.92
2018-12-18T00:13:03.388Z,465.04
2018-12-18T00:14:03.385Z,460.96
2018-12-18T00:15:03.389Z,461.85
2018-12-18T00:16:03.375Z,463.26
2018-12-18T00:17:03.737Z,461.16
2018-12-18T00:18:03.358Z,459.55
2018-12-18T00:19:03.334Z,462.15
2018-12-18T00:20:03.319Z,469.21
2018-12-18T00:21:03.301Z,463.58
2018-12-18T00:22:03.341Z,461.85
2018-12-18T00:23:03.371Z,463.19
2018-12-18T00:24:03.284Z,460.67
2018-12-18T00:25:03.276Z,461.59
2018-12-18T00:26:03.286Z,464.70
2018-12-18T00:27:03.280Z,461.08
2018-12-18T00:28:03.239Z,460.46
2018-12-18T00:29:03.229Z,457.15
2018-12-18T00:30:03.245Z,459.31
2018-12-18T00:31:03.190Z,463.37
2018-12-18T00:32:03.224Z,464.12
2018-12-18T00:33:03.221Z,461.86
2018-12-18T00:34:03.153Z,463.10
2018-12-18T00:35:03.180Z,461.40
2018-12-18T00:36:03.154Z,466.89
2018-12-18T00:37:03.167Z,465.91
2018-12-18T00:38:03.158Z,462.78
2018-12-18T00:39:03.105Z,458.07
2018-12-18T00:40:03.137Z,465.11
2018-12-18T00:41:03.126Z,461.86
2018-12-18T00:42:03.164Z,466.14
2018-12-18T00:43:03.085Z,459.09
2018-12-18T00:44:03.073Z,461.82
2018-12-18T00:45:03.043Z,461.15
2018-12-18T00:46:03.098Z,462.85
2018-12-18T00:47:03.015Z,462.43
2018-12-18T00:48:03.030Z,463.86
2018-12-18T00:49:03.022Z,461.97
2018-12-18T00:50:03.011Z,465.73
2018-12-18T00:51:03.034Z,463.67
2018-12-18T00:52:02.977Z,461.00
2018-12-18T00:53:02.973Z,463.51
2018-12-18T00:54:02.957Z,463.08
2018-12-18T00:55:02.964Z,460.71
2018-12-18T00:56:03.015Z,462.57
2018-12-18T00:57:02.940Z,462.67
2018-12-18T00:58:02.923Z,465.33
2018-12-18T00:59:02.971Z,461.24
2018-12-18T01:00:02.928Z,460.18
2018-12-18T01:01:03.639Z,464.53
2018-12-18T01:02:02.951Z,460.43
2018-12-18T01:03:03.750Z,461.21
2018-12-18T01:04:02.836Z,463.38
2018-12-18T01:05:02.844Z,463.00
2018-12-18T01:06:03.143Z,466.07
2018-12-18T01:07:02.835Z,461.49
2018-12-18T01:08:02.847Z,463.24
2018-12-18T01:09:02.798Z,460.86
2018-12-18T01:10:02.868Z,463.53
2018-12-18T01:11:02.797Z,459.93
2018-12-18T01:12:02.771Z,463.54
2018-12-18T01:13:02.783Z,462.42
2018-12-18T01:14:02.800Z,468.26
2018-12-18T01:15:02.760Z,462.89
2018-12-18T01:16:02.736Z,462.61
2018-12-18T01:17:02.719Z,464.10
2018-12-18T01:18:02.708Z,460.15
2018-12-18T01:19:02.733Z,466.76
2018-12-18T01:20:02.705Z,461.29
2018-12-18T01:21:02.720Z,463.61
2018-12-18T01:22:02.663Z,462.63
2018-12-18T01:23:02.667Z,461.86
2018-12-18T01:24:02.656Z,460.39
2018-12-18T01:25:02.659Z,460.78
2018-12-18T01:26:02.646Z,463.07
2018-12-18T01:27:02.659Z,466.80
2018-12-18T01:28:02.648Z,463.66
2018-12-18T01:29:02.603Z,462.97
2018-12-18T01:30:02.634Z,460.84
2018-12-18T01:31:02.594Z,462.17
2018-12-18T01:32:02.578Z,459.29
2018-12-18T01:33:02.550Z,460.75
2018-12-18T01:34:02.615Z,466.92
2018-12-18T01:35:02.579Z,464.31
2018-12-18T01:36:02.605Z,460.52
2018-12-18T01:37:02.536Z,462.15
2018-12-18T01:38:02.542Z,463.45
2018-12-18T01:39:02.494Z,462.69
2018-12-18T01:40:02.507Z,464.19
2018-12-18T01:41:02.470Z,466.70
2018-12-18T01:42:02.458Z,467.30
2018-12-18T01:43:02.469Z,460.28
2018-12-18T01:44:02.479Z,463.30
2018-12-18T01:45:02.427Z,460.84
2018-12-18T01:46:02.420Z,462.37
2018-12-18T01:47:02.407Z,461.34
2018-12-18T01:48:02.408Z,461.06
2018-12-18T01:49:02.429Z,462.81
2018-12-18T01:50:02.400Z,464.66
2018-12-18T01:51:02.406Z,461.38
2018-12-18T01:52:02.356Z,460.72
2018-12-18T01:53:02.378Z,459.57
2018-12-18T01:54:02.333Z,464.91
2018-12-18T01:55:02.352Z,467.09
2018-12-18T01:56:02.310Z,461.37
2018-12-18T01:57:02.290Z,461.33
2018-12-18T01:58:02.292Z,463.52
2018-12-18T01:59:02.291Z,460.74
2018-12-18T02:00:02.321Z,463.75
2018-12-18T02:01:02.293Z,463.81
2018-12-18T02:02:02.254Z,466.26
2018-12-18T02:03:02.280Z,462.53
2018-12-18T02:04:05.954Z,460.48
2018-12-18T02:05:02.245Z,463.76
2018-12-18T02:06:02.242Z,463.31
2018-12-18T02:07:02.229Z,464.33
2018-12-18T02:08:02.277Z,469.74
2018-12-18T02:09:02.172Z,463.66
2018-12-18T02:10:02.188Z,468.66
2018-12-18T02:11:02.169Z,465.12
2018-12-18T02:12:02.205Z,462.05
2018-12-18T02:13:02.128Z,462.36
2018-12-18T02:14:02.132Z,464.54
2018-12-18T02:15:02.128Z,463.94
2018-12-18T02:16:02.182Z,465.56
2018-12-18T02:17:02.121Z,463.03
2018-12-18T02:18:03.149Z,462.05
2018-12-18T02:19:02.104Z,465.58
2018-12-18T02:20:02.070Z,466.07
2018-12-18T02:21:02.068Z,462.91
2018-12-18T02:22:02.115Z,460.77
2018-12-18T02:23:02.031Z,464.33
2018-12-18T02:24:02.025Z,464.57
2018-12-18T02:25:02.028Z,462.82
2018-12-18T02:26:02.015Z,464.78
2018-12-18T02:27:01.998Z,466.12
2018-12-18T02:28:02.009Z,462.16
2018-12-18T02:29:01.995Z,466.30
2018-12-18T02:30:01.987Z,462.46
2018-12-18T02:31:01.988Z,462.98
2018-12-18T02:32:01.945Z,469.04
2018-12-18T02:33:01.962Z,462.01
2018-12-18T02:34:01.971Z,459.95
2018-12-18T02:35:01.924Z,471.26
2018-12-18T02:36:01.930Z,464.06
2018-12-18T02:37:01.880Z,461.14
2018-12-18T02:38:01.900Z,462.42
2018-12-18T02:39:01.870Z,462.42
2018-12-18T02:40:01.897Z,465.61
2018-12-18T02:41:01.853Z,465.10
2018-12-18T02:42:01.858Z,465.52
2018-12-18T02:43:01.868Z,468.01
2018-12-18T02:44:01.825Z,461.45
2018-12-18T02:45:01.825Z,463.68
2018-12-18T02:46:01.796Z,466.59
2018-12-18T02:47:01.801Z,464.15
2018-12-18T02:48:01.811Z,466.10
2018-12-18T02:49:01.799Z,460.35
2018-12-18T02:50:01.806Z,461.77
2018-12-18T02:51:01.762Z,462.43
2018-12-18T02:52:01.766Z,465.15
2018-12-18T02:53:01.731Z,466.77
2018-12-18T02:54:01.816Z,463.63
2018-12-18T02:55:01.753Z,465.04
2018-12-18T02:56:01.701Z,465.11
2018-12-18T02:57:01.689Z,464.59
2018-12-18T02:58:01.702Z,461.29
2018-12-18T02:59:01.660Z,462.13
2018-12-18T03:00:01.678Z,464.27
2018-12-18T03:01:01.641Z,465.57
2018-12-18T03:02:01.641Z,463.03
2018-12-18T03:03:01.627Z,463.23
2018-12-18T03:04:01.637Z,465.76
2018-12-18T03:05:01.648Z,465.15
2018-12-18T03:06:01.597Z,460.20
2018-12-18T03:07:01.605Z,463.92
2018-12-18T03:08:01.584Z,460.11
2018-12-18T03:09:01.574Z,465.86
2018-12-18T03:10:01.566Z,467.73
2018-12-18T03:11:01.585Z,460.70
2018-12-18T03:12:01.557Z,462.09
2018-12-18T03:13:01.529Z,466.51
2018-12-18T03:14:01.514Z,465.98
2018-12-18T03:15:01.502Z,464.05
2018-12-18T03:16:01.489Z,460.16
2018-12-18T03:17:01.535Z,464.39
2018-12-18T03:18:01.502Z,465.51
2018-12-18T03:19:01.476Z,465.98
2018-12-18T03:20:01.456Z,465.40
2018-12-18T03:21:01.483Z,466.09
2018-12-18T03:22:01.444Z,463.39
2018-12-18T03:23:01.418Z,461.17
2018-12-18T03:24:01.415Z,464.33
2018-12-18T03:25:01.445Z,465.90
2018-12-18T03:26:01.375Z,468.76
2018-12-18T03:27:01.375Z,464.29
2018-12-18T03:28:01.390Z,461.88
2018-12-18T03:29:01.349Z,461.30
2018-12-18T03:30:01.407Z,461.32
2018-12-18T03:31:01.334Z,464.87
2018-12-18T03:32:01.335Z,460.15
2018-12-18T03:33:01.374Z,462.84
2018-12-18T03:34:01.297Z,463.41
2018-12-18T03:35:01.346Z,461.24
2018-12-18T03:36:01.287Z,465.78
2018-12-18T03:37:01.275Z,464.91
2018-12-18T03:38:01.252Z,461.24
2018-12-18T03:39:01.250Z,462.73
2018-12-18T03:40:01.214Z,465.49
2018-12-18T03:41:01.281Z,461.49
2018-12-18T03:42:01.195Z,461.42
2018-12-18T03:43:01.203Z,462.88
2018-12-18T03:44:01.177Z,461.39
2018-12-18T03:45:01.193Z,463.09
2018-12-18T03:46:01.198Z,461.24
2018-12-18T03:47:01.222Z,463.57
2018-12-18T03:48:01.146Z,460.93
2018-12-18T03:49:01.159Z,464.97
2018-12-18T03:50:01.210Z,464.42
2018-12-18T03:51:01.123Z,459.66
2018-12-18T03:52:01.130Z,461.60
2018-12-18T03:53:01.118Z,465.12
2018-12-18T03:54:01.153Z,463.49
2018-12-18T03:55:01.089Z,462.03
2018-12-18T03:56:01.061Z,463.45
2018-12-18T03:57:01.091Z,460.89
2018-12-18T03:58:01.057Z,464.86
2018-12-18T03:59:01.076Z,462.92
2018-12-18T04:00:01.018Z,462.24
2018-12-18T04:01:01.028Z,463.37
2018-12-18T04:02:01.003Z,466.30
2018-12-18T04:03:01.024Z,461.57
2018-12-18T04:04:00.984Z,465.88
2018-12-18T04:05:01.012Z,462.00
2018-12-18T04:06:00.992Z,460.61
2018-12-18T04:07:00.990Z,461.25
2018-12-18T04:08:00.993Z,463.34
2018-12-18T04:09:00.951Z,466.23
2018-12-18T04:10:00.918Z,464.01
2018-12-18T04:11:00.933Z,460.04
2018-12-18T04:12:00.887Z,465.85
2018-12-18T04:13:00.903Z,465.15
2018-12-18T04:14:00.946Z,468.28
2018-12-18T04:15:00.929Z,465.34
2018-12-18T04:16:00.905Z,466.44
2018-12-18T04:17:00.871Z,465.03
2018-12-18T04:18:00.839Z,466.67
2018-12-18T04:19:00.883Z,466.92
2018-12-18T04:20:00.849Z,466.85
2018-12-18T04:21:00.838Z,464.45
2018-12-18T04:22:00.787Z,464.65
2018-12-18T04:23:00.807Z,470.92
2018-12-18T04:24:00.814Z,464.83
2018-12-18T04:25:00.786Z,468.27
2018-12-18T04:26:00.804Z,471.55
2018-12-18T04:27:00.771Z,463.49
2018-12-18T04:28:00.738Z,465.67
2018-12-18T04:29:00.756Z,464.88
2018-12-18T04:30:00.765Z,464.86
2018-12-18T04:31:00.831Z,463.39
2018-12-18T04:32:00.732Z,464.33
2018-12-18T04:33:00.704Z,461.73
2018-12-18T04:34:00.691Z,465.45
2018-12-18T04:35:00.656Z,462.46
2018-12-18T04:36:00.683Z,463.11
2018-12-18T04:37:00.665Z,466.43
2018-12-18T04:38:00.644Z,467.00
2018-12-18T04:39:00.623Z,464.20
2018-12-18T04:40:00.642Z,461.76
2018-12-18T04:41:00.799Z,464.81
2018-12-18T04:42:00.625Z,464.19
2018-12-18T04:43:00.588Z,468.97
2018-12-18T04:44:00.595Z,466.28
2018-12-18T04:45:00.610Z,466.42
2018-12-18T04:46:00.552Z,466.82
2018-12-18T04:47:00.599Z,465.41
2018-12-18T04:48:00.541Z,468.49
2018-12-18T04:49:00.541Z,470.62
2018-12-18T04:50:00.518Z,470.04
2018-12-18T04:51:00.553Z,465.06
2018-12-18T04:52:00.506Z,470.65
2018-12-18T04:53:00.509Z,469.20
2018-12-18T04:54:00.484Z,466.16
2018-12-18T04:55:00.485Z,467.61
2018-12-18T04:56:00.463Z,462.04
2018-12-18T04:57:00.443Z,465.49
2018-12-18T04:58:00.454Z,465.89
2018-12-18T04:59:00.465Z,467.50
2018-12-18T05:00:00.426Z,464.60
2018-12-18T05:01:00.457Z,465.56
2018-12-18T05:02:00.418Z,464.85
2018-12-18T05:03:00.385Z,464.71
2018-12-18T05:04:00.411Z,465.01
2018-12-18T05:05:00.417Z,464.84
2018-12-18T05:06:00.413Z,466.52
2018-12-18T05:07:00.341Z,467.49
2018-12-18T05:08:00.345Z,467.82
2018-12-18T05:09:00.337Z,473.35
2018-12-18T05:10:00.349Z,464.31
2018-12-18T05:11:00.315Z,470.40
2018-12-18T05:12:09.761Z,468.06
2018-12-18T05:13:00.279Z,463.78
2018-12-18T05:14:00.259Z,466.74
2018-12-18T05:15:00.245Z,465.62
2018-12-18T05:16:00.238Z,465.71
2018-12-18T05:17:00.247Z,466.87
2018-12-18T05:18:00.223Z,463.44
2018-12-18T05:19:00.215Z,463.21
2018-12-18T05:20:00.176Z,464.36
2018-12-18T05:21:00.170Z,462.24
2018-12-18T05:22:00.180Z,459.68
2018-12-18T05:23:00.158Z,463.84
2018-12-18T05:24:00.179Z,465.58
2018-12-18T05:25:00.165Z,467.07
2018-12-18T05:26:00.144Z,464.53
2018-12-18T05:27:00.109Z,466.03
2018-12-18T05:28:00.107Z,464.88
2018-12-18T05:29:00.149Z,462.77
2018-12-18T05:30:00.077Z,468.02
2018-12-18T05:31:00.080Z,469.41
2018-12-18T05:32:00.066Z,463.94
2018-12-18T05:33:00.066Z,465.83
2018-12-18T05:34:00.061Z,468.73
2018-12-18T05:35:00.046Z,465.75
2018-12-18T05:36:00.029Z,471.38
2018-12-18T05:37:00.040Z,467.33
2018-12-18T05:37:59.991Z,464.73
2018-12-18T05:39:00.017Z,466.70
2018-12-18T05:40:00.005Z,470.44
2018-12-18T05:40:59.990Z,468.94
2018-12-18T05:41:59.974Z,467.15
2018-12-18T05:42:59.950Z,471.73
2018-12-18T05:43:59.959Z,470.47
2018-12-18T05:44:59.967Z,464.33
2018-12-18T05:45:59.922Z,472.77
2018-12-18T05:46:59.913Z,472.40
2018-12-18T05:47:59.916Z,467.98
2018-12-18T05:48:59.890Z,471.94
2018-12-18T05:49:59.904Z,467.37
2018-12-18T05:50:59.908Z,471.72
2018-12-18T05:51:59.866Z,474.45
2018-12-18T05:52:59.864Z,472.84
2018-12-18T05:53:59.847Z,470.83
2018-12-18T05:54:59.830Z,468.46
2018-12-18T05:55:59.825Z,470.52
2018-12-18T05:56:59.826Z,476.50
2018-12-18T05:57:59.798Z,466.48
2018-12-18T05:58:59.797Z,467.23
2018-12-18T05:59:59.812Z,468.25
2018-12-18T06:00:59.758Z,468.31
2018-12-18T06:01:59.759Z,465.00
2018-12-18T06:02:59.756Z,469.46
2018-12-18T06:03:59.755Z,466.28
2018-12-18T06:05:03.245Z,469.68
2018-12-18T06:05:59.756Z,471.17
2018-12-18T06:06:59.757Z,468.27
2018-12-18T06:07:59.708Z,471.05
2018-12-18T06:08:59.682Z,468.99
2018-12-18T06:09:59.679Z,464.93
2018-12-18T06:10:59.674Z,468.12
2018-12-18T06:11:59.647Z,467.33
2018-12-18T06:12:59.696Z,468.86
2018-12-18T06:13:59.652Z,468.47
2018-12-18T06:14:59.639Z,471.01
2018-12-18T06:15:59.633Z,469.86
2018-12-18T06:16:59.591Z,466.36
2018-12-18T06:17:59.589Z,470.44
2018-12-18T06:18:59.604Z,466.80
2018-12-18T06:19:59.566Z,463.79
2018-12-18T06:20:59.585Z,468.64
2018-12-18T06:21:59.562Z,475.01
2018-12-18T06:22:59.563Z,467.37
2018-12-18T06:23:59.548Z,466.74
2018-12-18T06:24:59.511Z,470.16
2018-12-18T06:25:59.510Z,470.34
2018-12-18T06:26:59.506Z,470.00
2018-12-18T06:27:59.498Z,470.36
2018-12-18T06:28:59.530Z,470.53
2018-12-18T06:29:59.472Z,474.59
2018-12-18T06:30:59.483Z,472.47
2018-12-18T06:31:59.461Z,471.11
2018-12-18T06:32:59.433Z,473.14
2018-12-18T06:33:59.435Z,474.75
2018-12-18T06:34:59.459Z,470.40
2018-12-18T06:35:59.436Z,472.21
2018-12-18T06:36:59.401Z,473.40
2018-12-18T06:37:59.398Z,476.11
2018-12-18T06:38:59.385Z,480.74
2018-12-18T06:39:59.402Z,476.95
2018-12-18T06:40:59.350Z,475.47
2018-12-18T06:41:59.336Z,470.77
2018-12-18T06:42:59.338Z,468.83
2018-12-18T06:43:59.340Z,468.71
2018-12-18T06:44:59.343Z,473.89
2018-12-18T06:45:59.392Z,470.76
2018-12-18T06:46:59.302Z,467.94
2018-12-18T06:47:59.295Z,466.60
2018-12-18T06:48:59.294Z,468.48
2018-12-18T06:49:59.276Z,473.03
2018-12-18T06:50:59.284Z,470.15
2018-12-18T06:51:59.335Z,469.07
2018-12-18T06:52:59.259Z,471.79
2018-12-18T06:53:59.243Z,470.98
2018-12-18T06:54:59.229Z,475.19
2018-12-18T06:55:59.220Z,470.23
2018-12-18T06:56:59.230Z,472.11
2018-12-18T06:57:59.185Z,473.07
2018-12-18T06:58:59.179Z,472.36
2018-12-18T06:59:59.174Z,472.65
2018-12-18T07:00:59.184Z,469.29
2018-12-18T07:01:59.195Z,466.71
2018-12-18T07:02:59.133Z,475.45
2018-12-18T07:03:59.114Z,467.27
2018-12-18T07:04:59.117Z,470.71
2018-12-18T07:05:59.092Z,470.01
2018-12-18T07:06:59.124Z,475.10
2018-12-18T07:07:59.113Z,471.50
2018-12-18T07:08:59.090Z,472.84
2018-12-18T07:09:59.073Z,468.35
2018-12-18T07:10:59.067Z,474.19
2018-12-18T07:11:59.068Z,468.89
2018-12-18T07:12:59.076Z,469.10
2018-12-18T07:13:59.023Z,471.94
2018-12-18T07:14:59.064Z,475.74
2018-12-18T07:15:58.992Z,467.72
2018-12-18T07:16:59.006Z,472.34
2018-12-18T07:17:58.998Z,471.28
2018-12-18T07:18:59.014Z,473.25
2018-12-18T07:19:58.971Z,474.07
2018-12-18T07:20:58.961Z,480.53
2018-12-18T07:21:58.939Z,475.15
2018-12-18T07:22:58.935Z,474.14
2018-12-18T07:23:58.917Z,470.20
2018-12-18T07:24:58.911Z,469.06
2018-12-18T07:25:58.889Z,471.76
2018-12-18T07:26:58.902Z,477.92
2018-12-18T07:27:58.908Z,471.31
2018-12-18T07:28:58.879Z,475.19
2018-12-18T07:29:58.877Z,470.64
2018-12-18T07:30:58.857Z,470.55
2018-12-18T07:31:58.846Z,473.13
2018-12-18T07:32:58.855Z,473.25
2018-12-18T07:33:58.832Z,477.74
2018-12-18T07:34:58.839Z,475.99
2018-12-18T07:35:58.826Z,469.89
2018-12-18T07:36:58.789Z,472.07
2018-12-18T07:37:58.790Z,479.69
2018-12-18T07:38:58.769Z,480.17
2018-12-18T07:39:58.750Z,476.03
2018-12-18T07:40:58.758Z,475.22
2018-12-18T07:41:58.740Z,468.63
2018-12-18T07:42:58.746Z,478.77
2018-12-18T07:43:58.727Z,471.19
2018-12-18T07:44:58.749Z,471.31
2018-12-18T07:45:58.728Z,475.35
2018-12-18T07:46:58.809Z,471.82
2018-12-18T07:47:58.678Z,472.92
2018-12-18T07:48:58.667Z,469.09
2018-12-18T07:49:58.671Z,471.22
2018-12-18T07:50:58.673Z,468.95
2018-12-18T07:51:58.626Z,470.34
2018-12-18T07:52:58.638Z,479.23
2018-12-18T07:53:58.609Z,469.47
2018-12-18T07:54:58.617Z,465.36
2018-12-18T07:56:00.315Z,467.09
2018-12-18T07:56:58.604Z,469.46
2018-12-18T07:57:58.566Z,464.45
2018-12-18T07:58:59.168Z,474.43
2018-12-18T07:59:58.550Z,463.22
2018-12-18T08:00:58.540Z,472.80
2018-12-18T08:01:58.556Z,469.18
2018-12-18T08:02:58.539Z,467.15
2018-12-18T08:03:58.551Z,466.06
2018-12-18T08:04:58.502Z,471.53
2018-12-18T08:05:58.499Z,466.95
2018-12-18T08:06:58.480Z,469.27
2018-12-18T08:07:58.476Z,467.35
2018-12-18T08:08:58.470Z,468.76
2018-12-18T08:09:58.481Z,466.57
2018-12-18T08:10:58.435Z,470.33
2018-12-18T08:11:58.420Z,462.36
2018-12-18T08:12:58.427Z,464.33
2018-12-18T08:13:58.425Z,467.64
2018-12-18T08:14:58.380Z,464.39
2018-12-18T08:15:58.430Z,465.65
2018-12-18T08:16:58.405Z,465.81
2018-12-18T08:17:58.366Z,465.62
2018-12-18T08:18:58.356Z,471.56
2018-12-18T08:19:58.354Z,467.26
2018-12-18T08:20:58.331Z,465.62
2018-12-18T08:21:58.341Z,469.71
2018-12-18T08:22:58.307Z,465.63
2018-12-18T08:23:58.369Z,470.82
2018-12-18T08:24:58.303Z,468.91
2018-12-18T08:25:58.282Z,469.34
2018-12-18T08:26:58.291Z,467.85
2018-12-18T08:27:58.254Z,468.79
2018-12-18T08:28:58.246Z,467.05
2018-12-18T08:29:58.251Z,466.59
2018-12-18T08:30:58.305Z,462.91
2018-12-18T08:31:58.262Z,468.10
2018-12-18T08:32:58.263Z,470.32
2018-12-18T08:33:58.181Z,471.44
2018-12-18T08:34:58.172Z,470.57
2018-12-18T08:35:58.163Z,469.81
2018-12-18T08:36:58.178Z,471.34
2018-12-18T08:37:58.166Z,469.10
2018-12-18T08:38:58.130Z,471.09
2018-12-18T08:39:58.706Z,469.89
2018-12-18T08:40:58.109Z,470.30
2018-12-18T08:41:58.121Z,473.83
2018-12-18T08:42:58.153Z,473.96
2018-12-18T08:43:58.089Z,469.81
2018-12-18T08:44:58.053Z,471.40
2018-12-18T08:45:58.056Z,470.81
2018-12-18T08:46:58.073Z,469.23
2018-12-18T08:47:58.053Z,470.95
2018-12-18T08:48:58.195Z,471.68
2018-12-18T08:50:00.874Z,474.50
2018-12-18T08:50:58.713Z,472.08
2018-12-18T08:51:58.080Z,470.71
2018-12-18T08:52:57.994Z,469.49
2018-12-18T08:53:57.963Z,467.75
2018-12-18T08:54:58.145Z,464.30
2018-12-18T08:55:57.966Z,466.88
2018-12-18T08:56:58.036Z,467.47
2018-12-18T08:57:58.718Z,468.71
2018-12-18T08:58:57.953Z,470.28
2018-12-18T08:59:57.995Z,466.71
2018-12-18T09:00:57.936Z,470.68
2018-12-18T09:01:57.916Z,468.72
2018-12-18T09:02:58.004Z,467.71
2018-12-18T09:03:57.873Z,472.82
2018-12-18T09:04:57.853Z,468.62
2018-12-18T09:05:58.038Z,474.00
2018-12-18T09:06:57.832Z,475.05
2018-12-18T09:07:57.826Z,478.62
2018-12-18T09:08:58.740Z,480.67
2018-12-18T09:09:57.842Z,471.64
2018-12-18T09:10:57.793Z,468.68
2018-12-18T09:11:57.856Z,472.95
2018-12-18T09:13:06.864Z,477.65
2018-12-18T09:13:57.747Z,471.96
2018-12-18T09:14:57.740Z,472.68
2018-12-18T09:15:57.749Z,469.55
2018-12-18T09:16:57.746Z,479.89
2018-12-18T09:17:57.698Z,471.61
2018-12-18T09:18:57.802Z,472.93
2018-12-18T09:19:57.714Z,471.35
2018-12-18T09:20:57.773Z,467.67
2018-12-18T09:21:57.672Z,471.21
2018-12-18T09:22:57.656Z,472.74
2018-12-18T09:23:57.930Z,468.72
2018-12-18T09:24:57.651Z,470.12
2018-12-18T09:25:57.640Z,472.02
2018-12-18T09:26:57.659Z,470.27
2018-12-18T09:27:57.668Z,473.15
2018-12-18T09:28:57.659Z,473.75
2018-12-18T09:29:57.629Z,466.87
2018-12-18T09:30:57.663Z,469.15
2018-12-18T09:31:57.604Z,467.37
2018-12-18T09:32:57.680Z,469.73
2018-12-18T09:33:57.630Z,466.77
2018-12-18T09:34:57.576Z,468.94
2018-12-18T09:35:57.549Z,469.98
2018-12-18T09:36:57.550Z,470.04
2018-12-18T09:37:57.560Z,467.18
2018-12-18T09:38:57.531Z,467.65
2018-12-18T09:39:57.504Z,473.14
2018-12-18T09:40:57.507Z,468.53
2018-12-18T09:41:57.526Z,469.40
2018-12-18T09:42:57.480Z,467.39
2018-12-18T09:43:57.483Z,465.71
2018-12-18T09:44:57.445Z,467.57
2018-12-18T09:45:57.472Z,470.32
2018-12-18T09:46:57.418Z,469.28
2018-12-18T09:47:57.412Z,467.68
2018-12-18T09:48:57.437Z,467.41
2018-12-18T09:49:57.403Z,466.97
2018-12-18T09:50:57.393Z,467.35
2018-12-18T09:51:57.387Z,468.42
2018-12-18T09:52:57.392Z,465.27
2018-12-18T09:53:57.379Z,467.71
2018-12-18T09:54:57.387Z,471.61
2018-12-18T09:55:57.335Z,471.14
2018-12-18T09:56:57.304Z,470.77
2018-12-18T09:57:57.353Z,466.56
2018-12-18T09:58:57.412Z,468.50
2018-12-18T09:59:57.387Z,470.44
2018-12-18T10:00:57.287Z,464.74
2018-12-18T10:01:57.272Z,472.35
2018-12-18T10:02:57.283Z,470.04
2018-12-18T10:03:57.260Z,469.57
2018-12-18T10:04:57.283Z,472.22
2018-12-18T10:05:57.244Z,470.52
2018-12-18T10:06:57.221Z,469.23
2018-12-18T10:07:57.197Z,467.35
2018-12-18T10:08:57.213Z,473.20
2018-12-18T10:09:57.181Z,465.95
2018-12-18T10:10:57.222Z,467.76
2018-12-18T10:11:57.167Z,465.45
2018-12-18T10:12:57.164Z,466.86
2018-12-18T10:13:57.188Z,467.61
2018-12-18T10:14:57.140Z,463.85
2018-12-18T10:15:57.147Z,465.16
2018-12-18T10:16:57.106Z,469.36
2018-12-18T10:17:57.104Z,467.53
2018-12-18T10:19:05.913Z,465.37
2018-12-18T10:19:57.089Z,464.98
2018-12-18T10:21:06.374Z,464.76
2018-12-18T10:21:57.062Z,467.13
2018-12-18T10:22:57.037Z,462.46
2018-12-18T10:23:57.071Z,470.20
2018-12-18T10:24:57.047Z,466.79
2018-12-18T10:25:57.034Z,466.83
2018-12-18T10:27:04.572Z,469.13
2018-12-18T10:27:56.982Z,465.98
2018-12-18T10:28:57.009Z,471.89
2018-12-18T10:29:56.964Z,463.78
2018-12-18T10:30:56.995Z,469.19
2018-12-18T10:31:57.023Z,466.87
2018-12-18T10:32:56.938Z,465.63
2018-12-18T10:33:56.965Z,467.24
2018-12-18T10:34:57.016Z,469.79
2018-12-18T10:36:02.832Z,466.83
2018-12-18T10:36:57.936Z,471.26
2018-12-18T10:37:56.941Z,466.80
2018-12-18T10:38:56.911Z,468.28
2018-12-18T10:39:56.937Z,470.16
2018-12-18T10:40:56.945Z,469.00
2018-12-18T10:41:56.869Z,468.10
2018-12-18T10:42:57.853Z,468.88
2018-12-18T10:43:56.879Z,466.36
2018-12-18T10:44:56.839Z,465.74
2018-12-18T10:45:56.807Z,467.00
2018-12-18T10:46:56.798Z,469.12
2018-12-18T10:47:56.827Z,467.28
2018-12-18T10:48:56.808Z,467.60
2018-12-18T10:49:56.778Z,465.26
2018-12-18T10:50:56.829Z,469.73
2018-12-18T10:51:56.756Z,469.31
2018-12-18T10:52:56.770Z,464.55
2018-12-18T10:53:56.796Z,468.68
2018-12-18T10:54:56.752Z,470.41
2018-12-18T10:55:56.740Z,466.38
2018-12-18T10:56:56.723Z,468.25
2018-12-18T10:57:56.683Z,469.38
2018-12-18T10:58:56.727Z,466.06
2018-12-18T10:59:56.827Z,468.73
2018-12-18T11:00:57.356Z,464.76
2018-12-18T11:01:56.656Z,467.65
2018-12-18T11:02:56.663Z,467.26
2018-12-18T11:03:56.657Z,467.28
2018-12-18T11:04:56.663Z,469.82
2018-12-18T11:05:56.621Z,474.08
2018-12-18T11:06:56.617Z,468.97
2018-12-18T11:07:56.583Z,471.43
2018-12-18T11:08:56.679Z,467.31
2018-12-18T11:09:56.670Z,468.65
2018-12-18T11:10:56.633Z,469.52
2018-12-18T11:11:56.624Z,468.83
2018-12-18T11:12:56.569Z,468.67
2018-12-18T11:13:56.559Z,465.10
2018-12-18T11:14:56.516Z,466.91
2018-12-18T11:15:57.464Z,467.79
2018-12-18T11:16:56.524Z,469.65
2018-12-18T11:17:56.454Z,468.33
2018-12-18T11:18:56.456Z,465.40
2018-12-18T11:19:56.502Z,466.54
2018-12-18T11:20:56.489Z,467.71
2018-12-18T11:21:56.463Z,464.88
2018-12-18T11:22:56.501Z,463.72
2018-12-18T11:23:56.438Z,471.45
2018-12-18T11:24:56.463Z,471.77
2018-12-18T11:25:56.401Z,465.18
2018-12-18T11:26:56.393Z,468.14
2018-12-18T11:27:56.410Z,464.89
2018-12-18T11:28:56.493Z,469.29
2018-12-18T11:29:56.424Z,468.02
2018-12-18T11:30:56.361Z,470.42
2018-12-18T11:31:56.395Z,467.25
2018-12-18T11:32:56.325Z,466.83
2018-12-18T11:33:56.328Z,471.15
2018-12-18T11:34:56.393Z,470.09
2018-12-18T11:35:56.321Z,466.93
2018-12-18T11:36:56.390Z,469.87
2018-12-18T11:37:56.355Z,471.60
2018-12-18T11:38:56.334Z,468.37
2018-12-18T11:39:56.263Z,469.79
2018-12-18T11:40:56.240Z,467.41
2018-12-18T11:41:56.290Z,468.43
2018-12-18T11:42:56.244Z,470.88
2018-12-18T11:43:56.209Z,469.47
2018-12-18T11:44:56.234Z,471.46
2018-12-18T11:45:56.205Z,468.58
2018-12-18T11:46:56.179Z,472.08
2018-12-18T11:47:56.230Z,468.90
2018-12-18T11:48:56.166Z,472.57
2018-12-18T11:49:56.192Z,469.86
2018-12-18T11:50:56.162Z,473.74
2018-12-18T11:51:56.107Z,469.26
2018-12-18T11:52:56.165Z,467.45
2018-12-18T11:53:56.112Z,468.25
2018-12-18T11:54:56.094Z,467.18
2018-12-18T11:55:56.088Z,467.77
2018-12-18T11:56:56.102Z,471.29
2018-12-18T11:57:56.121Z,464.53
2018-12-18T11:58:56.054Z,466.57
2018-12-18T11:59:56.045Z,467.86
2018-12-18T12:00:56.021Z,467.57
2018-12-18T12:01:56.046Z,470.83
2018-12-18T12:02:56.037Z,469.85
2018-12-18T12:03:56.078Z,467.78
2018-12-18T12:04:56.057Z,463.44
2018-12-18T12:05:56.074Z,469.40
2018-12-18T12:06:56.065Z,467.97
2018-12-18T12:07:55.966Z,469.94
2018-12-18T12:08:55.956Z,468.44
2018-12-18T12:09:55.955Z,470.50
2018-12-18T12:10:55.935Z,469.20
2018-12-18T12:11:55.928Z,470.62
2018-12-18T12:12:55.925Z,465.41
2018-12-18T12:13:56.037Z,468.55
2018-12-18T12:14:55.946Z,468.50
2018-12-18T12:15:55.865Z,469.07
2018-12-18T12:16:56.035Z,468.97
2018-12-18T12:17:55.870Z,468.95
2018-12-18T12:18:55.839Z,468.89
2018-12-18T12:19:55.812Z,467.50
2018-12-18T12:20:55.860Z,469.88
2018-12-18T12:21:55.880Z,466.50
2018-12-18T12:22:55.789Z,471.11
2018-12-18T12:23:55.951Z,470.39
2018-12-18T12:24:55.753Z,470.13
2018-12-18T12:25:55.808Z,470.22
2018-12-18T12:26:55.793Z,470.94
2018-12-18T12:27:55.794Z,474.55